Cornelius, Oregon
Current Conditions -  °F | °C
As of 11:53 PM on Wednesday 22 Oct 2014 (Local Time) from KHIO Reporting Station
Overcast Overcast  
Wind Chill: 52°   Ceiling: 4800
Heat Index: 52°   Visibility: 10mi
Dew Point: 51°   Wind: 6mph
Humidity: 97%   Direction: 140°SE
Pressure: 29.77"   Gusts: NA
Location:  45.52°N, 123.05°W
Report Text: KHIO 230653Z AUTO 14005KT 10SM BKN048 OVC090 11/11 A2977 RMK AO2 SLP081 T01110106 TSNO
Loading
Personal Weather Stations






























Interactive Weather Map
Tropical Storm Tracking
New forecast layout! Learn more

10-Day Weather Forecast

Advertisements
Track Severe Weather on mobile